Kalamazoo Battle Creek International Airport
KAZO : rendu visible

Aérodrome :











RETROUVEZ-NOUS SUR...

 
LOGIN :

S'inscrire | Disclaimer

   EN    FR    IT 

 









Légende :    VFR   VFR Marginal   IFR   IFR Intensif   IFR Très Intensif
Visi : 
Plafond : 
>= 8 km
>= 3000ft
5 à 8 km
1000 à 3000 ft
1500m à 5 km
500 à 1000 ft
800 à 1500m
200 à 500 ft
< 800m
< 200 ft
Symboles :   Orages  Brouillard  Fortes neiges  Fortes précipitations  Vent > 20 kt






- Altitude de l'aérodrome : 874 ft
- Code IATA : AZO


KAZO - Kalamazoo Battle Creek International

DERNIER METAR :
  • 280753Z AUTO 17006KT 10SM OVC060 22/18 A2993 RMK AO2 SLP128 T02170183

METARs EXPIRÉS :
  • 280653Z AUTO 18006KT 10SM FEW065 OVC080 22/19 A2994 RMK AO2 SLP132 T02170194
  • 280553Z AUTO 15003KT 10SM OVC080 21/19 A2994 RMK AO2 SLP133 T02110194 10228 20194 58006

TAF KAZO
Valide du 28 à 06h jusqu'au 29 à 06h UTC


280543Z 2806/2906 VRB03KT 6SM BR OVC090
FM280800 VRB03KT 3SM BR BKN090
FM281500 19008KT 6SM BR VCTS OVC020CB
FM281900 21010KT P6SM VCTS OVC035CB
FM290000 23007KT P6SM OVC050
FM290300 24008KT 6SM BR OVC025
FIR KZAU / Amérique du Nord



MET'MAP, la Météo Aéronautique d'un coup d'oeil ! - Copyright ORBIFLY Décembre 2007 - Disclaimer

ORBIFLY MET'MAP TEAM :

Programmation & Développement : Alexandra Zaïnal
Sur une idée originale de : Baudouin d'Aumeries
Assistance à la programmation : Marc-Olivier Méhu
Soutien technique & logistique : Manuel Goepfert

Contact : metmap@orbifly.com




SOURCES & CREDITS :

   NOAA       Earth
Advisory